Alton, KS

3:20 AM CST on December 10, 2016 (GMT -0600)
Petrichor Weather HQ | | Change Station

Elev 1575 ft 39.44 °N, 98.69 °W | Updated 1 minute ago

Mostly Cloudy
Mostly Cloudy
20.5 °F
Feels Like 15 °F
N
3.8
Wind Variable Wind from SSE
Gusts 4.9 mph

Today
High -- | Low -- °F
--% Chance of Precip.
Yesterday
High -- | Low -- °F
Precip. -- in
Pressure 30.39 in
Visibility 10.0 miles
Clouds Clear
Windchill 15 °F
Dew Point 14 °F
Humidity 76%
Rainfall 0.00 in
Snow Depth Not available.
7:45 AM 5:12 PM
Waxing Gibbous, 82% visible
METAR KRSL 100853Z AUTO 16010KT 10SM CLR M07/M11 A3031 RMK AO2 SLP291 T10671106 58017 TSNO
Pressure 30.39 in
Visibility 10.0 miles
Clouds Clear
Windchill 15 °F
Dew Point 14 °F
Humidity 76%
Rainfall 0.00 in
Snow Depth Not available.
7:45 AM 5:12 PM
Waxing Gibbous, 82% visible
METAR KRSL 100853Z AUTO 16010KT 10SM CLR M07/M11 A3031 RMK AO2 SLP291 T10671106 58017 TSNO

10-Day Weather Forecast

Almanac

Astronomy

Dec. 10, 2016 Rise Set
Actual Time
Civil Twilight
Nautical Twilight
Astronomical Twilight
Moon
Length of Visible Light
Length of Day
Tomorrow will be .
, % of the Moon is Illuminated

Today's Extremes

State Highs State Lows

Community

WunderPhotos

Upload Photos

1,956,538 photos uploaded!

WunderBlog® & News

Nearby

Air Quality

  Air Quality AQ Index Pollutant
Not available.

Snow Depth

Station Depth Elevation

Earthquake Activity

City Distance Mag. Time & Date
Minimum magnitude displayed is 2.5.

Coastal Water Temperatures

Place Temperature

Stations

Nearby Weather Stations

Station Location Temp. Windchill Dew Point Humidity Wind Precip. Elev Updated Type
                   

Watches & Warnings

There are currently no watches in effect.